Time;durP1;ratioP1;P1;durP2;ratioP2;P2;SDS_P1;SDS_P2;PMS_P1;PMS_P2;Temp;Humidity;BMP_temperature;BMP_pressure;BME280_temperature;BME280_humidity;BME280_pressure;Samples;Min_cycle;Max_cycle;Signal;HPM_P1;HPM_P2
2022/09/25 00:00:50;;;;;;;5.15;3.20;;;13.10;99.90;;;;;;5068988;28;20031;-80
2022/09/25 00:03:17;;;;;;;5.55;3.00;;;13.10;99.90;;;;;;5071005;28;20025;-81
2022/09/25 00:05:47;;;;;;;6.65;3.15;;;13.10;99.90;;;;;;5071244;28;20023;-81
2022/09/25 00:08:14;;;;;;;5.63;2.75;;;13.00;99.90;;;;;;5074256;28;20031;-80
2022/09/25 00:10:42;;;;;;;8.90;2.95;;;13.00;99.90;;;;;;5073914;28;20096;-80
2022/09/25 00:13:08;;;;;;;5.28;3.13;;;12.90;99.90;;;;;;5076258;28;20024;-79
2022/09/25 00:15:34;;;;;;;4.72;2.90;;;12.90;99.90;;;;;;5057734;28;20032;-80
2022/09/25 00:18:00;;;;;;;5.03;2.90;;;12.90;99.90;;;;;;5056676;28;20020;-79
2022/09/25 00:20:26;;;;;;;9.88;3.20;;;12.80;99.90;;;;;;5071572;28;20052;-79
2022/09/25 00:22:53;;;;;;;8.85;2.85;;;12.80;99.90;;;;;;5060077;28;20024;-79
2022/09/25 00:25:26;;;;;;;4.40;2.70;;;12.80;99.90;;;;;;5071003;28;20167;-80
2022/09/25 00:27:52;;;;;;;8.10;3.30;;;12.70;99.90;;;;;;5066794;28;20374;-80
2022/09/25 00:30:18;;;;;;;13.60;3.40;;;12.70;99.90;;;;;;5072064;28;20025;-79
2022/09/25 00:32:44;;;;;;;8.75;3.40;;;12.70;99.90;;;;;;5071337;28;20059;-80
2022/09/25 00:35:09;;;;;;;10.20;2.78;;;12.70;99.90;;;;;;5073998;28;20029;-79
2022/09/25 00:37:36;;;;;;;8.93;3.03;;;12.70;99.90;;;;;;5073839;28;20068;-79
2022/09/25 00:40:05;;;;;;;6.10;2.80;;;12.60;99.90;;;;;;5069230;28;20112;-79
2022/09/25 00:42:31;;;;;;;11.57;3.55;;;12.50;99.90;;;;;;5061017;28;20048;-79
2022/09/25 00:44:57;;;;;;;5.28;3.33;;;12.50;99.90;;;;;;5064199;28;20104;-79
2022/09/25 00:47:45;;;;;;;4.53;3.00;;;12.50;99.90;;;;;;5061845;28;20049;-79
2022/09/25 00:50:24;;;;;;;7.28;3.53;;;12.40;99.90;;;;;;5064616;28;20100;-79
2022/09/25 00:52:53;;;;;;;9.27;3.42;;;12.40;99.90;;;;;;5070057;28;20052;-80
2022/09/25 00:55:21;;;;;;;9.65;3.08;;;12.40;99.90;;;;;;5065346;28;20029;-79
2022/09/25 00:57:51;;;;;;;10.18;4.40;;;12.40;99.90;;;;;;5071206;28;20389;-79
2022/09/25 01:00:17;;;;;;;8.63;3.40;;;12.40;99.90;;;;;;5069683;28;20036;-80
2022/09/25 01:02:52;;;;;;;7.72;3.22;;;12.50;99.90;;;;;;5074732;28;20029;-80
2022/09/25 01:05:27;;;;;;;6.95;3.17;;;12.50;99.90;;;;;;5073215;28;20021;-80
2022/09/25 01:07:56;;;;;;;8.98;3.08;;;12.50;99.90;;;;;;5077463;28;20021;-79
2022/09/25 01:10:22;;;;;;;14.48;3.53;;;12.50;99.90;;;;;;5075501;28;20020;-80
2022/09/25 01:12:50;;;;;;;5.50;3.03;;;12.50;99.90;;;;;;5078126;28;20078;-80
2022/09/25 01:15:19;;;;;;;7.78;3.28;;;12.60;99.90;;;;;;5064640;28;20036;-79
2022/09/25 01:18:09;;;;;;;8.05;3.10;;;12.50;99.90;;;;;;5060837;28;20414;-80
2022/09/25 01:20:55;;;;;;;5.93;3.15;;;12.50;99.90;;;;;;5062684;28;20029;-80
2022/09/25 01:23:39;;;;;;;9.05;3.22;;;12.50;99.90;;;;;;5072251;28;20485;-80
2022/09/25 01:26:08;;;;;;;7.35;4.22;;;12.50;99.90;;;;;;5074482;28;20048;-80
2022/09/25 01:29:14;;;;;;;12.75;4.28;;;12.50;99.90;;;;;;5073315;28;20017;-80
2022/09/25 01:32:28;;;;;;;9.52;3.22;;;12.50;99.90;;;;;;5074393;28;20028;-79
2022/09/25 01:35:09;;;;;;;5.28;3.35;;;12.50;99.90;;;;;;5056304;28;20400;-80
2022/09/25 01:37:41;;;;;;;;;;;12.30;99.90;;;;;;5071472;28;20045;-80
2022/09/25 01:40:45;;;;;;;7.50;3.20;;;12.30;99.90;;;;;;5072050;28;19912;-80
2022/09/25 01:43:18;;;;;;;8.98;3.35;;;12.10;99.90;;;;;;5062311;28;20133;-80
2022/09/25 01:45:52;;;;;;;9.52;4.38;;;12.10;99.90;;;;;;5067222;28;20482;-80
2022/09/25 01:48:23;;;;;;;7.28;3.67;;;12.00;99.90;;;;;;5066468;28;20017;-80
2022/09/25 01:50:58;;;;;;;4.85;3.10;;;12.00;99.90;;;;;;5070763;28;20056;-79
2022/09/25 01:53:49;;;;;;;11.30;3.65;;;12.00;99.90;;;;;;5075602;28;20473;-79
2022/09/25 01:56:37;;;;;;;8.57;3.53;;;11.90;99.90;;;;;;5073326;28;20041;-79
2022/09/25 01:59:17;;;;;;;9.88;3.80;;;11.90;99.90;;;;;;5076416;28;20024;-80
2022/09/25 02:01:44;;;;;;;9.13;3.78;;;11.90;99.90;;;;;;5060031;28;20085;-80
2022/09/25 02:04:13;;;;;;;10.65;4.20;;;11.80;99.90;;;;;;5061535;28;20027;-79
2022/09/25 02:06:44;;;;;;;7.65;3.25;;;11.80;99.90;;;;;;5061126;28;20018;-80
2022/09/25 02:09:16;;;;;;;10.70;4.18;;;11.80;99.90;;;;;;5067040;28;20086;-80
2022/09/25 02:11:47;;;;;;;4.93;3.45;;;11.70;99.90;;;;;;5063793;28;20033;-80
2022/09/25 02:14:21;;;;;;;;;;;11.70;99.90;;;;;;5071573;28;20029;-80
2022/09/25 02:16:51;;;;;;;6.97;3.78;;;11.60;99.90;;;;;;5065608;28;19992;-79
2022/09/25 02:22:11;;;;;;;9.43;3.30;;;11.50;99.90;;;;;;5072048;28;20055;-79
2022/09/25 02:24:53;;;;;;;7.20;3.40;;;11.50;99.90;;;;;;5070437;28;20013;-80
2022/09/25 02:27:20;;;;;;;7.30;4.00;;;11.40;99.90;;;;;;5065297;28;20028;-80
2022/09/25 02:29:46;;;;;;;10.43;3.70;;;11.40;99.90;;;;;;5075220;28;20020;-79
2022/09/25 02:32:33;;;;;;;12.73;3.80;;;11.40;99.90;;;;;;5068909;28;20025;-80
2022/09/25 02:34:59;;;;;;;9.77;3.95;;;11.40;99.90;;;;;;5060223;28;20512;-80
2022/09/25 02:37:26;;;;;;;7.43;3.63;;;11.30;99.90;;;;;;5058994;28;20179;-80
2022/09/25 02:40:00;;;;;;;8.20;4.43;;;11.30;99.90;;;;;;5064691;28;20487;-80
2022/09/25 02:42:58;;;;;;;6.55;3.72;;;11.40;99.90;;;;;;5062480;28;20087;-80
2022/09/25 02:45:35;;;;;;;9.65;3.28;;;11.30;99.90;;;;;;5075252;28;20083;-80
2022/09/25 02:48:09;;;;;;;10.98;3.65;;;11.30;99.90;;;;;;5070528;28;20025;-80
2022/09/25 02:51:04;;;;;;;13.48;4.18;;;11.30;99.90;;;;;;5066073;28;20094;-80
2022/09/25 02:53:41;;;;;;;8.80;4.13;;;11.30;99.90;;;;;;5067482;28;20029;-80
2022/09/25 02:56:25;;;;;;;7.32;3.55;;;11.20;99.90;;;;;;5071478;28;20024;-80
2022/09/25 02:58:55;;;;;;;6.72;3.38;;;11.20;99.90;;;;;;5070934;28;20052;-80
2022/09/25 03:01:25;;;;;;;12.50;4.07;;;11.10;99.90;;;;;;5075651;28;20025;-80
2022/09/25 03:03:53;;;;;;;7.83;4.13;;;11.10;99.90;;;;;;5075662;28;20029;-79
2022/09/25 03:06:20;;;;;;;9.23;3.95;;;11.10;99.90;;;;;;5068216;28;20295;-80
2022/09/25 03:08:51;;;;;;;6.85;3.88;;;11.10;99.90;;;;;;5070974;28;20024;-80
2022/09/25 03:11:20;;;;;;;8.00;4.30;;;11.20;99.90;;;;;;5057914;28;20083;-81
2022/09/25 03:13:56;;;;;;;8.75;4.07;;;11.30;99.90;;;;;;5061614;28;20024;-79
2022/09/25 03:16:47;;;;;;;15.10;5.15;;;11.40;99.90;;;;;;5061324;28;20131;-80
2022/09/25 03:19:14;;;;;;;12.13;4.10;;;11.40;99.90;;;;;;5075219;28;20036;-80
2022/09/25 03:21:39;;;;;;;7.22;4.00;;;11.60;99.90;;;;;;5073489;28;20116;-80
2022/09/25 03:24:05;;;;;;;12.23;4.55;;;11.60;99.90;;;;;;5069252;28;20040;-80
2022/09/25 03:26:32;;;;;;;10.38;4.13;;;11.70;99.90;;;;;;5069636;28;20031;-79
2022/09/25 03:29:01;;;;;;;10.80;4.18;;;11.70;99.90;;;;;;5072426;28;20020;-80
2022/09/25 03:31:28;;;;;;;8.02;4.40;;;11.70;99.90;;;;;;5067799;28;20036;-80
2022/09/25 03:33:54;;;;;;;6.75;3.63;;;11.70;99.90;;;;;;5073991;28;20024;-80
2022/09/25 03:36:22;;;;;;;5.60;3.70;;;11.70;99.90;;;;;;5073705;28;20136;-81
2022/09/25 03:38:51;;;;;;;5.95;3.50;;;11.70;99.90;;;;;;5076476;28;20020;-80
2022/09/25 03:41:20;;;;;;;7.72;3.55;;;11.80;99.90;;;;;;5073307;28;20032;-80
2022/09/25 03:43:50;;;;;;;6.03;2.88;;;11.90;99.90;;;;;;5058167;28;20071;-79
2022/09/25 03:46:18;;;;;;;10.60;3.58;;;11.90;99.90;;;;;;5061068;28;20536;-79
2022/09/25 03:48:45;;;;;;;15.75;3.80;;;12.00;99.90;;;;;;5058711;28;20021;-80
2022/09/25 03:51:11;;;;;;;9.30;3.95;;;12.00;99.90;;;;;;5064776;28;20028;-81
2022/09/25 03:53:38;;;;;;;5.28;3.67;;;12.00;99.90;;;;;;5070829;28;20028;-81
2022/09/25 03:56:13;;;;;;;7.13;4.13;;;12.00;99.90;;;;;;5067479;28;20028;-79
2022/09/25 03:58:39;;;;;;;6.50;3.72;;;11.90;99.90;;;;;;5063963;28;20013;-81
2022/09/25 04:01:06;;;;;;;10.93;4.13;;;11.90;99.90;;;;;;5070463;28;20028;-80
2022/09/25 04:03:32;;;;;;;6.18;4.18;;;11.90;99.90;;;;;;5067335;28;20087;-81
2022/09/25 04:06:01;;;;;;;5.63;3.65;;;11.90;99.90;;;;;;5071717;28;20013;-81
2022/09/25 04:08:27;;;;;;;7.55;3.40;;;11.90;99.90;;;;;;5073094;28;20489;-80
2022/09/25 04:11:00;;;;;;;9.38;4.00;;;11.90;99.90;;;;;;5075476;28;20070;-80
2022/09/25 04:13:29;;;;;;;11.43;4.20;;;11.80;99.90;;;;;;5074919;28;20032;-80
2022/09/25 04:15:56;;;;;;;11.45;4.88;;;11.80;99.90;;;;;;5058971;28;20028;-80
2022/09/25 04:18:23;;;;;;;10.98;4.65;;;11.80;99.90;;;;;;5063637;28;20017;-80
2022/09/25 04:20:49;;;;;;;7.25;3.65;;;11.80;99.90;;;;;;5062625;28;20025;-80
2022/09/25 04:23:15;;;;;;;8.57;3.83;;;11.70;99.90;;;;;;5065738;28;20025;-80
2022/09/25 04:25:41;;;;;;;6.28;4.25;;;11.70;99.90;;;;;;5074810;28;20879;-80
2022/09/25 04:28:08;;;;;;;7.15;3.78;;;11.60;99.90;;;;;;5072388;28;20021;-80
2022/09/25 04:30:35;;;;;;;10.55;4.03;;;11.40;99.90;;;;;;5073544;28;20023;-80
2022/09/25 04:35:45;;;;;;;7.72;3.80;;;11.20;99.90;;;;;;5074849;28;20036;-80
2022/09/25 04:38:11;;;;;;;4.55;3.92;;;11.10;99.90;;;;;;5075687;28;20048;-79
2022/09/25 04:40:37;;;;;;;7.53;3.75;;;11.00;99.90;;;;;;5077162;28;20031;-79
2022/09/25 04:43:05;;;;;;;12.90;4.03;;;11.00;99.90;;;;;;5076632;28;20108;-80
2022/09/25 04:45:33;;;;;;;10.82;4.22;;;10.90;99.90;;;;;;5077252;28;20033;-80
2022/09/25 04:47:59;;;;;;;8.30;3.92;;;10.80;99.90;;;;;;5061884;28;20009;-80
2022/09/25 04:50:27;;;;;;;6.40;4.22;;;10.80;99.90;;;;;;5061301;28;20035;-80
2022/09/25 04:52:53;;;;;;;6.95;4.30;;;10.70;99.90;;;;;;5064875;28;20029;-80
2022/09/25 04:55:23;;;;;;;13.30;3.95;;;10.70;99.90;;;;;;5063473;28;20370;-80
2022/09/25 04:57:53;;;;;;;12.77;5.47;;;10.60;99.90;;;;;;5078640;28;20025;-80
2022/09/25 05:00:20;;;;;;;10.32;4.63;;;10.60;99.90;;;;;;5065419;28;20439;-80
2022/09/25 05:02:46;;;;;;;6.03;4.65;;;10.60;99.90;;;;;;5070974;28;20028;-80
2022/09/25 05:05:13;;;;;;;5.82;4.40;;;10.60;99.90;;;;;;5067577;28;20036;-80
2022/09/25 05:07:39;;;;;;;7.82;4.50;;;10.60;99.90;;;;;;5073352;28;20029;-80
2022/09/25 05:10:07;;;;;;;6.80;4.82;;;10.60;99.90;;;;;;5076473;28;20096;-80
2022/09/25 05:12:35;;;;;;;8.68;4.78;;;10.50;99.90;;;;;;5067671;28;20027;-79
2022/09/25 05:15:01;;;;;;;7.78;4.50;;;10.50;99.90;;;;;;5073834;28;20024;-80
2022/09/25 05:17:27;;;;;;;11.80;4.57;;;10.40;99.90;;;;;;5075209;28;20086;-80
2022/09/25 05:19:53;;;;;;;7.43;4.80;;;10.40;99.90;;;;;;5079018;28;20085;-80
2022/09/25 05:22:18;;;;;;;16.13;5.93;;;10.40;99.90;;;;;;5075155;28;20119;-79
2022/09/25 05:24:44;;;;;;;15.60;5.50;;;10.30;99.90;;;;;;5073854;28;20087;-80
2022/09/25 05:27:11;;;;;;;18.38;5.43;;;10.30;99.90;;;;;;5076962;28;20021;-79
2022/09/25 05:29:37;;;;;;;8.35;5.63;;;10.30;99.90;;;;;;5065228;28;20024;-80
2022/09/25 05:32:03;;;;;;;10.68;5.07;;;10.30;99.90;;;;;;5071221;28;20040;-80
2022/09/25 05:34:29;;;;;;;9.45;5.15;;;10.30;99.90;;;;;;5072135;28;20025;-80
2022/09/25 05:36:55;;;;;;;7.85;5.07;;;10.20;99.90;;;;;;5075454;28;20049;-80
2022/09/25 05:39:21;;;;;;;12.50;5.10;;;10.20;99.90;;;;;;5079000;28;20028;-80
2022/09/25 05:41:46;;;;;;;12.98;5.57;;;10.20;99.90;;;;;;5079823;28;20020;-80
2022/09/25 05:44:13;;;;;;;10.48;5.50;;;10.20;99.90;;;;;;5069539;28;20031;-79
2022/09/25 05:46:39;;;;;;;12.40;5.75;;;10.10;99.90;;;;;;5077558;28;20117;-79
2022/09/25 05:49:05;;;;;;;8.65;4.75;;;10.20;99.90;;;;;;5069537;28;20017;-79
2022/09/25 05:51:31;;;;;;;9.88;5.70;;;10.20;99.90;;;;;;5075902;28;20020;-80
2022/09/25 05:53:58;;;;;;;9.63;5.20;;;10.20;99.90;;;;;;5064741;28;20052;-80
2022/09/25 05:56:24;;;;;;;9.40;5.93;;;10.10;99.90;;;;;;5078810;28;20024;-79
2022/09/25 05:58:51;;;;;;;8.32;5.60;;;10.20;99.90;;;;;;5065459;28;20027;-80
2022/09/25 06:01:18;;;;;;;10.63;6.53;;;10.20;99.90;;;;;;5072412;28;20602;-80
2022/09/25 06:03:44;;;;;;;9.90;5.95;;;10.20;99.90;;;;;;5068124;28;20025;-80
2022/09/25 06:06:10;;;;;;;10.00;5.85;;;10.20;99.90;;;;;;5080092;28;20085;-80
2022/09/25 06:08:36;;;;;;;10.07;5.88;;;10.20;99.90;;;;;;5074585;28;20028;-80
2022/09/25 06:11:03;;;;;;;8.73;5.63;;;10.20;99.90;;;;;;5077935;28;20013;-80
2022/09/25 06:13:31;;;;;;;14.25;5.63;;;10.20;99.90;;;;;;5079007;28;20028;-80
2022/09/25 06:15:57;;;;;;;10.10;5.47;;;10.10;99.90;;;;;;5070954;28;20016;-80
2022/09/25 06:18:24;;;;;;;11.20;5.63;;;10.10;99.90;;;;;;5062390;28;20082;-80
2022/09/25 06:20:50;;;;;;;7.93;5.90;;;10.10;99.90;;;;;;5061497;28;20021;-80
2022/09/25 06:23:17;;;;;;;16.08;5.65;;;10.10;99.90;;;;;;5065253;28;20482;-80
2022/09/25 06:25:44;;;;;;;9.43;6.15;;;10.20;99.90;;;;;;5066827;28;20016;-80
2022/09/25 06:28:13;;;;;;;10.02;5.80;;;10.20;99.90;;;;;;5079281;28;20040;-80
2022/09/25 06:30:39;;;;;;;12.80;6.53;;;10.40;99.90;;;;;;5073255;28;20029;-80
2022/09/25 06:33:13;;;;;;;13.70;7.07;;;10.50;99.90;;;;;;5069670;28;20401;-79
2022/09/25 06:35:43;;;;;;;21.15;6.72;;;10.70;99.90;;;;;;5072606;28;20017;-80
2022/09/25 06:38:09;;;;;;;12.88;6.40;;;10.90;99.90;;;;;;5064822;28;20063;-80
2022/09/25 06:40:36;;;;;;;14.57;6.75;;;11.10;99.90;;;;;;5063597;28;20098;-80
2022/09/25 06:43:04;;;;;;;10.52;6.32;;;11.20;99.90;;;;;;5074592;28;20558;-80
2022/09/25 06:45:33;;;;;;;9.55;6.10;;;11.40;99.90;;;;;;5068494;28;20074;-80
2022/09/25 06:48:04;;;;;;;7.07;5.30;;;11.60;99.90;;;;;;5069791;28;20024;-80
2022/09/25 06:50:45;;;;;;;6.63;5.50;;;11.80;99.90;;;;;;5071197;28;20062;-80
2022/09/25 06:53:12;;;;;;;8.05;5.50;;;12.00;99.90;;;;;;5081386;28;20028;-80
2022/09/25 06:55:39;;;;;;;9.13;4.82;;;12.10;99.90;;;;;;5073680;28;20051;-80
2022/09/25 06:58:07;;;;;;;8.05;5.13;;;12.10;99.90;;;;;;5076064;28;20031;-79
2022/09/25 07:00:33;;;;;;;11.05;5.63;;;12.20;99.90;;;;;;5076826;28;20075;-80
2022/09/25 07:05:46;;;;;;;11.55;4.75;;;12.20;99.90;;;;;;5065020;28;20073;-79
2022/09/25 07:08:19;;;;;;;7.57;4.40;;;12.30;99.90;;;;;;5069199;28;20041;-80
2022/09/25 07:10:50;;;;;;;7.00;4.28;;;12.40;99.90;;;;;;5064960;28;20024;-79
2022/09/25 07:13:23;;;;;;;5.03;3.28;;;12.50;99.90;;;;;;5063545;28;20072;-80
2022/09/25 07:15:54;;;;;;;7.95;3.92;;;12.60;99.90;;;;;;5064764;28;20029;-82
2022/09/25 07:18:21;;;;;;;12.30;4.95;;;12.70;99.90;;;;;;5066215;28;20481;-80
2022/09/25 07:20:48;;;;;;;7.05;4.30;;;12.80;99.90;;;;;;5072394;28;20032;-80
2022/09/25 07:23:16;;;;;;;7.00;3.70;;;12.80;99.90;;;;;;5068142;28;20074;-80
2022/09/25 07:25:43;;;;;;;9.07;4.53;;;12.80;99.90;;;;;;5073025;28;20044;-80
2022/09/25 07:28:11;;;;;;;10.63;4.60;;;12.80;99.90;;;;;;5070514;28;20031;-80
2022/09/25 07:30:37;;;;;;;11.25;4.10;;;12.80;99.90;;;;;;5074722;28;20035;-81
2022/09/25 07:33:03;;;;;;;7.65;4.13;;;12.80;99.90;;;;;;5072632;28;20469;-84
2022/09/25 07:35:29;;;;;;;6.50;3.88;;;12.80;99.90;;;;;;5075556;28;20032;-84
2022/09/25 07:37:56;;;;;;;4.95;3.47;;;12.90;99.90;;;;;;5071381;28;20045;-82
2022/09/25 07:40:25;;;;;;;6.00;3.50;;;13.00;99.90;;;;;;5072067;28;20028;-84
2022/09/25 07:42:51;;;;;;;5.30;4.15;;;13.00;99.90;;;;;;5071737;28;20393;-83
2022/09/25 07:45:17;;;;;;;10.45;3.47;;;13.10;99.90;;;;;;5075967;28;20027;-83
2022/09/25 07:47:43;;;;;;;10.45;3.67;;;13.10;99.90;;;;;;5071985;28;20028;-84
2022/09/25 07:50:09;;;;;;;7.38;3.90;;;13.20;99.90;;;;;;5077691;28;20074;-83
2022/09/25 07:52:35;;;;;;;11.57;3.83;;;13.30;99.90;;;;;;5063795;28;20473;-83
2022/09/25 07:55:01;;;;;;;5.88;3.63;;;13.40;99.90;;;;;;5060263;28;20431;-84
2022/09/25 07:57:27;;;;;;;7.00;3.67;;;13.50;99.90;;;;;;5062748;28;20052;-83
2022/09/25 07:59:52;;;;;;;4.93;3.10;;;13.50;99.90;;;;;;5062366;28;20469;-84
2022/09/25 08:02:18;;;;;;;6.70;3.20;;;13.60;99.90;;;;;;5069682;28;20439;-84
2022/09/25 08:04:44;;;;;;;9.07;3.85;;;13.60;99.90;;;;;;5077629;28;20111;-84
2022/09/25 08:07:11;;;;;;;11.38;3.90;;;13.60;99.90;;;;;;5073778;28;20028;-84
2022/09/25 08:09:38;;;;;;;6.28;3.15;;;13.80;99.90;;;;;;5058409;28;20023;-84
2022/09/25 08:12:04;;;;;;;9.20;3.38;;;13.80;99.90;;;;;;5073273;28;20104;-84
2022/09/25 08:14:31;;;;;;;8.25;3.60;;;13.80;99.90;;;;;;5072741;28;20056;-84
2022/09/25 08:16:59;;;;;;;3.75;3.28;;;13.80;99.90;;;;;;5073405;28;20400;-84
2022/09/25 08:19:26;;;;;;;12.00;3.28;;;13.80;99.90;;;;;;5076213;28;20091;-84
2022/09/25 08:21:52;;;;;;;9.02;3.20;;;13.80;99.90;;;;;;5065002;28;20070;-85
2022/09/25 08:24:18;;;;;;;6.57;3.00;;;13.90;99.90;;;;;;5068153;28;20017;-84
2022/09/25 08:26:45;;;;;;;6.22;3.22;;;14.00;99.90;;;;;;5061668;28;20546;-83
2022/09/25 08:29:11;;;;;;;9.15;3.25;;;14.00;99.90;;;;;;5057894;28;20029;-84
2022/09/25 08:31:37;;;;;;;8.18;3.58;;;14.00;99.90;;;;;;5063142;28;20058;-84
2022/09/25 08:34:03;;;;;;;4.95;2.70;;;14.10;99.90;;;;;;5060763;28;20055;-84
2022/09/25 08:36:29;;;;;;;7.30;3.42;;;14.20;99.90;;;;;;5066605;28;20059;-83
2022/09/25 08:38:57;;;;;;;6.13;3.22;;;14.30;99.90;;;;;;5063020;28;20021;-83
2022/09/25 08:41:31;;;;;;;7.90;3.50;;;14.50;99.90;;;;;;5061788;28;20469;-83
2022/09/25 08:44:19;;;;;;;9.13;3.83;;;14.60;99.90;;;;;;5058290;28;20472;-83
2022/09/25 08:49:58;;;;;;;4.00;2.63;;;14.80;99.90;;;;;;5059538;28;20507;-83
2022/09/25 08:52:24;;;;;;;7.30;3.03;;;14.80;99.90;;;;;;5057976;28;20029;-83
2022/09/25 08:54:50;;;;;;;3.78;2.35;;;14.80;99.90;;;;;;5057465;28;20025;-83
2022/09/25 08:57:42;;;;;;;5.63;2.75;;;14.80;99.90;;;;;;5060767;28;20477;-83
2022/09/25 09:00:22;;;;;;;7.78;2.97;;;14.90;99.90;;;;;;5063696;28;20124;-81
2022/09/25 09:02:56;;;;;;;7.00;3.42;;;15.10;99.90;;;;;;5066092;28;20021;-78
2022/09/25 09:05:25;;;;;;;8.40;2.65;;;15.30;99.90;;;;;;5070060;28;20152;-83
2022/09/25 09:07:59;;;;;;;5.60;3.03;;;15.50;99.90;;;;;;5076374;28;20021;-83
2022/09/25 09:10:40;;;;;;;9.02;2.90;;;15.70;99.90;;;;;;5074607;28;20032;-83
2022/09/25 09:13:22;;;;;;;;;;;15.70;99.90;;;;;;5078943;28;20479;-83
2022/09/25 09:16:00;;;;;;;3.65;2.70;;;15.80;99.90;;;;;;5092658;28;19939;-82
2022/09/25 09:18:29;;;;;;;5.10;2.85;;;15.90;99.90;;;;;;5079686;28;20028;-83
2022/09/25 09:20:57;;;;;;;10.20;2.83;;;16.00;99.90;;;;;;5077852;28;20025;-83
2022/09/25 09:23:38;;;;;;;10.40;2.50;;;16.20;99.90;;;;;;5068771;28;20037;-84
2022/09/25 09:26:11;;;;;;;9.98;2.40;;;16.30;99.90;;;;;;5068549;28;20010;-83
2022/09/25 09:29:01;;;;;;;6.80;2.50;;;16.40;99.90;;;;;;5085144;28;20039;-83
2022/09/25 09:31:32;;;;;;;3.30;2.15;;;16.60;99.90;;;;;;5079989;28;20506;-83
2022/09/25 09:34:29;;;;;;;5.55;2.40;;;16.70;99.90;;;;;;5075455;28;20063;-82
2022/09/25 09:37:05;;;;;;;6.82;3.30;;;16.70;99.90;;;;;;5067062;28;20048;-81
2022/09/25 09:39:44;;;;;;;7.75;2.72;;;16.60;99.90;;;;;;5071218;28;20075;-83
2022/09/25 09:42:44;;;;;;;6.30;2.22;;;16.50;99.90;;;;;;5074126;28;20029;-84
2022/09/25 09:45:39;;;;;;;7.82;2.30;;;16.30;99.90;;;;;;5076516;28;20075;-83
2022/09/25 09:48:14;;;;;;;6.93;3.20;;;16.00;99.90;;;;;;5074167;28;20070;-82
2022/09/25 09:50:43;;;;;;;8.70;2.25;;;16.00;99.90;;;;;;5073856;28;20017;-82
2022/09/25 09:53:31;;;;;;;4.82;2.35;;;16.00;99.90;;;;;;5063688;28;20439;-83
2022/09/25 09:56:13;;;;;;;3.97;2.30;;;16.00;99.90;;;;;;5066631;28;20062;-83
2022/09/25 09:58:55;;;;;;;10.85;2.63;;;16.30;99.90;;;;;;5071846;28;20025;-80
2022/09/25 10:01:25;;;;;;;7.15;2.38;;;16.60;99.90;;;;;;5068060;28;20024;-82
2022/09/25 10:04:23;;;;;;;2.67;1.80;;;16.70;99.90;;;;;;5067864;28;20025;-82
2022/09/25 10:07:00;;;;;;;8.75;3.03;;;16.80;99.90;;;;;;5067122;28;20047;-81
2022/09/25 10:09:26;;;;;;;8.02;2.42;;;16.70;99.90;;;;;;5069598;28;20024;-83
2022/09/25 10:12:21;;;;;;;7.72;2.30;;;16.60;99.90;;;;;;5073078;28;20138;-82
2022/09/25 10:14:47;;;;;;;6.70;2.97;;;16.70;99.90;;;;;;5069442;28;20103;-83
2022/09/25 10:17:14;;;;;;;3.47;2.25;;;16.60;99.90;;;;;;5061789;28;20068;-82
2022/09/25 10:19:51;;;;;;;6.13;2.13;;;16.70;99.90;;;;;;5060434;28;20020;-82
2022/09/25 10:22:24;;;;;;;3.85;2.00;;;16.90;99.90;;;;;;5058217;28;20067;-80
2022/09/25 10:25:04;;;;;;;6.93;2.33;;;17.10;99.90;;;;;;5060168;28;20024;-82
2022/09/25 10:27:35;;;;;;;9.93;2.45;;;17.10;99.90;;;;;;5059425;28;20076;-80
2022/09/25 10:30:09;;;;;;;12.20;3.20;;;17.10;99.90;;;;;;5064814;28;20437;-78
2022/09/25 10:32:59;;;;;;;6.22;1.95;;;17.20;99.90;;;;;;5059923;28;20052;-79
2022/09/25 10:35:42;;;;;;;6.97;2.07;;;17.50;99.90;;;;;;5057451;28;20501;-81
2022/09/25 10:38:47;;;;;;;9.13;2.35;;;17.50;99.90;;;;;;5060055;28;20365;-81
2022/09/25 10:41:16;;;;;;;5.47;2.53;;;17.30;99.90;;;;;;5060393;28;20112;-81
2022/09/25 10:44:00;;;;;;;6.80;2.72;;;17.30;99.90;;;;;;5076098;28;20031;-81
2022/09/25 10:50:09;;;;;;;4.35;2.60;;;17.20;99.90;;;;;;5074335;28;20070;-79
2022/09/25 10:52:04;;;;;;;5.28;1.90;;;17.00;99.90;;;;;;5062404;28;20095;-81
2022/09/25 10:54:30;;;;;;;10.98;2.97;;;16.90;99.90;;;;;;5066102;28;20029;-80
2022/09/25 10:56:56;;;;;;;5.63;2.45;;;16.80;99.90;;;;;;5056437;28;20533;-79
2022/09/25 10:59:23;;;;;;;5.97;2.58;;;16.80;99.90;;;;;;5059240;28;20029;-82
2022/09/25 11:01:52;;;;;;;3.60;2.35;;;17.00;99.90;;;;;;5068916;28;20469;-78
2022/09/25 11:04:31;;;;;;;5.53;2.33;;;17.10;99.90;;;;;;5072685;28;20058;-80
2022/09/25 11:07:01;;;;;;;6.47;2.40;;;17.20;99.90;;;;;;5073449;28;20111;-82
2022/09/25 11:09:28;;;;;;;5.75;2.42;;;17.10;99.90;;;;;;5077161;28;20047;-80
2022/09/25 11:12:19;;;;;;;6.55;2.70;;;17.10;99.90;;;;;;5064178;28;20025;-79
2022/09/25 11:14:55;;;;;;;4.72;2.20;;;17.40;99.90;;;;;;5068315;28;20017;-78
2022/09/25 11:17:40;;;;;;;2.88;1.88;;;17.70;99.90;;;;;;5070245;28;20036;-81
2022/09/25 11:20:28;;;;;;;3.85;2.08;;;18.00;99.90;;;;;;5060144;28;20040;-80
2022/09/25 11:23:33;;;;;;;4.93;2.28;;;17.90;99.90;;;;;;5072518;28;20035;-81
2022/09/25 11:26:13;;;;;;;5.38;2.65;;;17.80;99.90;;;;;;5071451;28;20017;-82
2022/09/25 11:29:04;;;;;;;9.55;2.67;;;17.80;99.90;;;;;;5071198;28;20027;-82
2022/09/25 11:31:40;;;;;;;4.15;2.20;;;18.00;99.90;;;;;;5065875;28;20025;-81
2022/09/25 11:34:25;;;;;;;6.78;3.03;;;18.20;99.90;;;;;;5072586;28;20456;-80
2022/09/25 11:37:16;;;;;;;3.63;2.35;;;18.30;99.90;;;;;;5074958;28;20443;-83
2022/09/25 11:42:53;;;;;;;4.35;2.20;;;18.00;99.90;;;;;;5064941;28;20035;-82
2022/09/25 11:45:29;;;;;;;5.47;2.80;;;17.70;99.90;;;;;;5070178;28;20028;-83
2022/09/25 11:48:04;;;;;;;5.32;2.42;;;17.70;99.90;;;;;;5070074;28;20016;-83
2022/09/25 11:50:51;;;;;;;3.55;2.47;;;17.70;99.90;;;;;;5069579;28;20028;-83
2022/09/25 11:54:05;;;;;;;7.72;2.30;;;17.90;99.90;;;;;;5067246;28;20226;-82
2022/09/25 11:57:02;;;;;;;3.90;2.15;;;18.40;99.90;;;;;;5017335;28;20107;-82
2022/09/25 11:59:40;;;;;;;4.35;2.30;;;18.90;99.90;;;;;;4996277;28;20018;-82
2022/09/25 12:02:16;;;;;;;4.22;2.20;;;19.10;99.90;;;;;;5061363;28;20082;-80
2022/09/25 12:05:13;;;;;;;5.25;2.40;;;19.30;99.90;;;;;;5073875;28;20540;-81
2022/09/25 12:08:06;;;;;;;3.92;2.33;;;19.20;99.90;;;;;;5059948;28;20029;-81
2022/09/25 12:10:54;;;;;;;8.05;2.17;;;19.30;99.90;;;;;;5072133;28;20016;-81
2022/09/25 12:13:29;;;;;;;4.97;2.10;;;19.40;99.90;;;;;;5069844;28;20453;-80
2022/09/25 12:16:42;;;;;;;4.22;2.13;;;19.60;99.90;;;;;;5072117;28;20024;-81
2022/09/25 12:19:35;;;;;;;3.42;1.85;;;19.40;99.90;;;;;;5015613;28;20046;-82
2022/09/25 12:22:29;;;;;;;3.40;1.90;;;19.20;99.90;;;;;;5059867;28;20029;-82
2022/09/25 12:25:15;;;;;;;4.63;2.30;;;19.10;99.90;;;;;;5064753;28;20025;-83
2022/09/25 12:28:04;;;;;;;4.93;2.53;;;19.10;99.90;;;;;;5066899;28;20023;-82
2022/09/25 12:30:55;;;;;;;4.00;2.00;;;19.10;99.90;;;;;;5065857;28;20021;-82
2022/09/25 12:33:33;;;;;;;7.70;2.28;;;19.00;99.90;;;;;;5075703;28;20029;-83
2022/09/25 12:36:06;;;;;;;3.15;2.00;;;19.00;99.90;;;;;;5065918;28;20052;-82
2022/09/25 12:38:45;;;;;;;3.20;1.98;;;18.80;99.90;;;;;;5083057;28;20036;-82
2022/09/25 12:41:24;;;;;;;3.00;2.08;;;18.80;99.90;;;;;;5065297;28;20025;-85
2022/09/25 12:44:03;;;;;;;4.72;2.03;;;18.70;99.90;;;;;;5069736;28;20061;-83
2022/09/25 12:47:05;;;;;;;3.20;1.90;;;18.70;99.90;;;;;;5065190;28;20094;-82
2022/09/25 12:49:41;;;;;;;3.15;2.17;;;18.70;99.90;;;;;;5061958;28;20033;-84
2022/09/25 12:52:19;;;;;;;7.75;2.15;;;18.60;99.90;;;;;;5078473;28;20096;-82
2022/09/25 12:54:58;;;;;;;4.78;2.25;;;18.40;99.90;;;;;;5066916;28;20017;-80
2022/09/25 12:57:32;;;;;;;6.35;2.28;;;18.20;99.90;;;;;;5067827;28;20416;-80
2022/09/25 13:00:03;;;;;;;5.80;2.55;;;18.10;99.90;;;;;;5073747;28;20016;-82
2022/09/25 13:02:47;;;;;;;4.30;2.35;;;18.20;99.90;;;;;;5073913;28;20028;-83
2022/09/25 13:06:04;;;;;;;4.70;2.42;;;18.50;99.90;;;;;;5065897;28;20028;-82
2022/09/25 13:08:53;;;;;;;3.08;2.10;;;18.70;99.90;;;;;;5056203;28;20517;-84
2022/09/25 13:11:43;;;;;;;4.03;2.22;;;18.70;99.90;;;;;;5079218;28;20098;-82
2022/09/25 13:14:21;;;;;;;3.97;1.70;;;18.90;99.90;;;;;;5070483;28;20025;-82
2022/09/25 13:16:47;;;;;;;2.63;1.60;;;19.10;99.90;;;;;;5078213;28;20037;-82
2022/09/25 13:19:27;;;;;;;3.75;2.20;;;19.20;99.90;;;;;;5068534;28;20028;-83
2022/09/25 13:22:09;;;;;;;4.00;2.63;;;19.30;99.90;;;;;;5072229;28;20050;-79
2022/09/25 13:25:12;;;;;;;4.93;1.98;;;19.30;99.90;;;;;;5074192;28;20270;-80
2022/09/25 13:27:44;;;;;;;3.22;1.77;;;19.30;99.90;;;;;;5059608;28;20037;-81
2022/09/25 13:30:27;;;;;;;3.90;1.90;;;19.30;99.90;;;;;;5075820;28;20031;-82
2022/09/25 13:33:02;;;;;;;5.90;2.45;;;19.20;99.90;;;;;;5069975;28;20024;-82
2022/09/25 13:35:33;;;;;;;4.35;2.30;;;19.20;99.90;;;;;;5071112;28;20021;-81